Time;durP1;ratioP1;P1;durP2;ratioP2;P2;SDS_P1;SDS_P2;PMS_P1;PMS_P2;Temp;Humidity;BMP_temperature;BMP_pressure;BME280_temperature;BME280_humidity;BME280_pressure;Samples;Min_cycle;Max_cycle;Signal;HPM_P1;HPM_P2
2023/07/08 00:00:53;;;;;;;5.60;4.80;;;;;;;14.82;63.32;98535.73;106719;1277;24071;-74
2023/07/08 00:03:40;;;;;;;8.40;4.90;;;;;;;14.78;63.72;98537.34;106664;1277;24277;-75
2023/07/08 00:06:16;;;;;;;6.10;4.80;;;;;;;14.71;64.56;98533.63;106627;1277;25466;-75
2023/07/08 00:08:42;;;;;;;5.80;5.10;;;;;;;14.65;64.73;98535.99;106708;1277;22550;-75
2023/07/08 00:11:11;;;;;;;5.90;5.20;;;;;;;14.54;64.78;98534.58;106739;1265;22533;-76
2023/07/08 00:13:38;;;;;;;9.20;4.10;;;;;;;14.43;65.63;98536.23;106733;1277;22709;-74
2023/07/08 00:16:12;;;;;;;6.90;4.40;;;;;;;14.44;66.62;98538.54;106723;1277;22532;-75
2023/07/08 00:18:39;;;;;;;6.70;4.50;;;;;;;14.48;66.36;98538.61;106726;1277;22536;-74
2023/07/08 00:21:15;;;;;;;4.80;4.10;;;;;;;14.44;66.39;98537.79;106783;1277;22555;-74
2023/07/08 00:23:46;;;;;;;5.30;3.80;;;;;;;14.50;66.55;98535.16;106732;1277;24253;-75
2023/07/08 00:26:23;;;;;;;6.20;4.30;;;;;;;14.55;66.20;98529.09;106707;1254;25568;-75
2023/07/08 00:28:50;;;;;;;5.60;4.50;;;;;;;14.38;66.47;98529.67;106814;1277;22715;-74
2023/07/08 00:31:23;;;;;;;4.80;3.40;;;;;;;14.34;68.22;98531.41;106692;1277;24343;-74
2023/07/08 00:33:50;;;;;;;4.20;3.70;;;;;;;14.49;67.15;98531.16;106699;1277;25234;-75
2023/07/08 00:36:18;;;;;;;5.60;4.10;;;;;;;14.56;66.84;98531.79;106729;1277;24244;-74
2023/07/08 00:38:45;;;;;;;8.20;4.30;;;;;;;14.50;67.22;98532.34;106707;1278;24359;-75
2023/07/08 00:41:31;;;;;;;6.60;4.70;;;;;;;14.37;67.17;98530.48;106440;1278;22541;-75
2023/07/08 00:43:59;;;;;;;7.10;4.30;;;;;;;14.27;67.83;98530.33;106731;1278;22704;-75
2023/07/08 00:46:29;;;;;;;6.50;4.70;;;;;;;14.30;67.56;98527.48;106632;1277;22701;-75
2023/07/08 00:49:08;;;;;;;4.60;3.90;;;;;;;14.27;67.39;98527.46;106727;1277;25485;-76
2023/07/08 00:51:39;;;;;;;6.30;4.60;;;;;;;14.20;67.62;98529.95;106737;1277;24236;-77
2023/07/08 00:54:14;;;;;;;6.60;4.70;;;;;;;14.13;67.62;98529.23;106586;1277;22794;-77
2023/07/08 00:56:41;;;;;;;4.90;4.40;;;;;;;14.00;67.68;98526.83;106663;1277;22640;-77
2023/07/08 00:59:18;;;;;;;5.30;4.60;;;;;;;13.88;68.03;98527.52;106476;1277;22540;-77
2023/07/08 01:01:46;;;;;;;5.40;4.60;;;;;;;13.80;68.17;98525.98;106503;1278;23107;-77
2023/07/08 01:04:17;;;;;;;6.30;4.00;;;;;;;13.69;68.68;98527.40;106542;1277;23366;-78
2023/07/08 01:06:47;;;;;;;5.50;3.90;;;;;;;13.70;69.21;98524.67;106771;1277;22593;-77
2023/07/08 01:09:15;;;;;;;10.20;4.50;;;;;;;13.76;69.53;98522.27;106603;1277;24211;-77
2023/07/08 01:11:42;;;;;;;5.60;4.40;;;;;;;13.79;69.53;98521.93;106587;1277;23003;-77
2023/07/08 01:14:14;;;;;;;6.30;4.30;;;;;;;13.83;69.85;98525.09;106760;1277;25328;-77
2023/07/08 01:16:41;;;;;;;5.20;4.50;;;;;;;13.91;69.23;98522.80;106572;1277;22658;-76
2023/07/08 01:19:15;;;;;;;4.90;3.80;;;;;;;13.84;69.38;98520.95;106571;1277;25306;-76
2023/07/08 01:22:02;;;;;;;7.00;4.20;;;;;;;13.78;69.96;98518.77;106526;1277;22553;-77
2023/07/08 01:24:31;;;;;;;6.50;3.80;;;;;;;13.78;69.53;98514.04;106624;1277;22530;-77
2023/07/08 01:27:00;;;;;;;6.10;4.10;;;;;;;13.67;69.82;98514.89;106731;1277;24202;-77
2023/07/08 01:29:28;;;;;;;4.90;4.10;;;;;;;13.61;70.24;98512.83;106644;1277;23414;-77
2023/07/08 01:31:56;;;;;;;5.60;4.00;;;;;;;13.54;70.52;98516.86;106736;1277;22533;-77
2023/07/08 01:34:23;;;;;;;6.20;3.90;;;;;;;13.39;70.46;98511.73;106691;1270;22526;-77
2023/07/08 01:36:55;;;;;;;6.10;4.30;;;;;;;13.26;70.97;98515.21;106728;1277;22636;-76
2023/07/08 01:39:24;;;;;;;6.20;4.20;;;;;;;13.17;71.30;98517.37;106694;1278;25213;-76
2023/07/08 01:41:51;;;;;;;6.00;4.60;;;;;;;13.11;71.71;98516.89;106752;1277;25233;-77
2023/07/08 01:44:34;;;;;;;5.10;4.20;;;;;;;13.11;72.00;98516.52;106491;1277;22543;-76
2023/07/08 01:47:13;;;;;;;6.20;4.50;;;;;;;13.24;72.46;98508.88;106538;1277;22678;-76
2023/07/08 01:49:42;;;;;;;6.60;4.30;;;;;;;13.33;72.03;98506.16;106490;1279;22550;-76
2023/07/08 01:52:10;;;;;;;5.60;4.60;;;;;;;13.32;72.26;98505.48;106608;1277;22524;-76
2023/07/08 01:54:37;;;;;;;5.40;4.70;;;;;;;13.27;72.29;98509.85;106517;1277;22555;-75
2023/07/08 01:57:04;;;;;;;6.10;4.50;;;;;;;13.21;72.42;98504.63;106539;1277;25031;-75
2023/07/08 01:59:31;;;;;;;6.00;4.60;;;;;;;13.14;72.66;98504.55;106496;1278;23032;-74
2023/07/08 02:01:58;;;;;;;6.30;4.70;;;;;;;13.10;73.10;98508.20;106408;1279;22552;-74
2023/07/08 02:04:26;;;;;;;5.50;4.50;;;;;;;12.99;73.00;98505.70;106557;1277;24193;-75
2023/07/08 02:06:55;;;;;;;6.90;5.70;;;;;;;12.85;73.31;98505.74;106672;1277;26589;-75
2023/07/08 02:09:22;;;;;;;5.50;4.50;;;;;;;12.79;73.48;98508.72;106618;1278;22567;-75
2023/07/08 02:11:49;;;;;;;6.50;4.60;;;;;;;12.78;74.07;98506.86;106494;1277;22537;-74
2023/07/08 02:14:17;;;;;;;5.60;4.60;;;;;;;12.80;74.40;98509.15;106554;1278;22549;-73
2023/07/08 02:16:43;;;;;;;6.70;5.30;;;;;;;12.73;74.19;98508.23;106573;1277;22648;-75
2023/07/08 02:19:11;;;;;;;7.10;4.90;;;;;;;12.68;74.35;98512.32;106568;1277;22667;-75
2023/07/08 02:21:39;;;;;;;7.80;4.80;;;;;;;12.67;74.50;98511.30;106513;1278;22537;-75
2023/07/08 02:24:07;;;;;;;7.20;5.30;;;;;;;12.75;74.99;98511.83;106623;1277;22545;-74
2023/07/08 02:26:35;;;;;;;6.80;4.70;;;;;;;12.82;74.93;98510.41;106587;1277;22532;-74
2023/07/08 02:29:02;;;;;;;6.50;5.30;;;;;;;12.90;75.58;98509.50;106543;1277;22551;-74
2023/07/08 02:31:30;;;;;;;10.70;6.20;;;;;;;12.93;75.42;98508.40;106593;1277;25297;-74
2023/07/08 02:33:57;;;;;;;8.90;6.50;;;;;;;12.87;75.47;98511.23;106594;1277;25277;-74
2023/07/08 02:36:23;;;;;;;9.20;7.20;;;;;;;12.77;75.92;98508.98;106576;1277;22552;-74
2023/07/08 02:38:50;;;;;;;7.70;6.60;;;;;;;12.72;76.07;98515.66;106574;1277;24274;-74
2023/07/08 02:41:17;;;;;;;10.10;7.00;;;;;;;12.63;75.99;98515.77;106580;1277;22541;-73
2023/07/08 02:43:43;;;;;;;9.40;7.60;;;;;;;12.58;75.61;98518.17;106559;1277;24060;-73
2023/07/08 02:46:10;;;;;;;11.10;7.40;;;;;;;12.60;75.63;98519.16;106559;1277;22542;-73
2023/07/08 02:48:38;;;;;;;7.60;6.80;;;;;;;12.60;76.02;98517.66;106681;1277;25504;-74
2023/07/08 02:51:06;;;;;;;9.10;6.30;;;;;;;12.55;76.60;98517.26;106571;1277;24216;-74
2023/07/08 02:53:32;;;;;;;7.30;6.50;;;;;;;12.52;76.74;98520.28;106488;1278;23017;-73
2023/07/08 02:56:00;;;;;;;8.50;6.10;;;;;;;12.66;76.96;98522.04;106630;1277;22684;-73
2023/07/08 02:58:27;;;;;;;7.20;5.80;;;;;;;12.85;77.21;98525.92;106519;1277;22632;-74
2023/07/08 03:00:58;;;;;;;8.00;7.10;;;;;;;12.92;77.21;98527.80;106469;1277;25405;-74
2023/07/08 03:03:28;;;;;;;8.70;6.70;;;;;;;12.89;77.27;98533.33;106619;1277;22808;-74
2023/07/08 03:06:01;;;;;;;7.50;5.90;;;;;;;12.88;77.35;98533.13;106620;1277;22538;-74
2023/07/08 03:08:29;;;;;;;8.10;5.70;;;;;;;12.92;77.57;98530.13;106647;1277;22657;-74
2023/07/08 03:11:07;;;;;;;8.80;6.10;;;;;;;12.94;77.87;98533.61;106524;1277;25478;-74
2023/07/08 03:13:34;;;;;;;8.10;5.80;;;;;;;12.87;77.83;98540.27;106589;1277;25498;-73
2023/07/08 03:16:02;;;;;;;10.80;6.60;;;;;;;12.85;77.94;98541.73;106515;1278;22531;-73
2023/07/08 03:18:29;;;;;;;8.10;5.70;;;;;;;12.85;77.76;98545.89;106607;1277;25303;-73
2023/07/08 03:20:57;;;;;;;11.40;5.40;;;;;;;12.85;77.80;98548.70;106455;1278;22554;-73
2023/07/08 03:23:26;;;;;;;7.70;5.90;;;;;;;12.79;77.72;98550.11;106605;1277;25298;-73
2023/07/08 03:25:53;;;;;;;10.70;6.40;;;;;;;12.74;78.28;98547.11;106499;1277;22544;-74
2023/07/08 03:28:20;;;;;;;10.50;5.70;;;;;;;12.76;78.14;98545.17;106508;1277;23901;-74
2023/07/08 03:30:52;;;;;;;7.60;5.60;;;;;;;12.86;78.23;98548.24;106553;1277;22709;-75
2023/07/08 03:33:20;;;;;;;7.90;6.00;;;;;;;12.99;78.28;98546.73;106522;1277;22534;-74
2023/07/08 03:35:46;;;;;;;11.70;5.80;;;;;;;13.07;78.71;98546.89;106613;1277;24229;-74
2023/07/08 03:38:13;;;;;;;9.00;5.80;;;;;;;13.14;78.77;98549.77;106549;1277;22650;-75
2023/07/08 03:40:40;;;;;;;12.80;5.90;;;;;;;13.09;78.79;98547.72;106596;1277;22545;-74
2023/07/08 03:43:08;;;;;;;8.60;5.80;;;;;;;13.00;79.48;98544.70;106592;1277;24039;-75
2023/07/08 03:45:36;;;;;;;8.00;5.80;;;;;;;12.95;79.65;98540.88;106577;1277;22544;-75
2023/07/08 03:48:04;;;;;;;10.90;6.50;;;;;;;12.99;79.70;98537.58;106574;1277;25250;-75
2023/07/08 03:50:31;;;;;;;10.70;6.30;;;;;;;13.06;79.68;98536.85;106611;1277;22962;-75
2023/07/08 03:52:58;;;;;;;10.50;5.60;;;;;;;13.26;79.66;98538.31;106472;1277;23935;-75
2023/07/08 03:55:28;;;;;;;9.10;6.70;;;;;;;13.52;79.70;98539.02;106564;1277;25367;-75
2023/07/08 03:57:55;;;;;;;8.00;6.50;;;;;;;13.69;79.46;98537.31;106702;1277;25551;-75
2023/07/08 04:00:22;;;;;;;9.60;6.50;;;;;;;13.88;80.04;98533.32;106600;1277;25367;-76
2023/07/08 04:02:49;;;;;;;9.00;7.50;;;;;;;14.30;80.89;98528.14;106540;1277;22619;-74
2023/07/08 04:05:22;;;;;;;10.10;7.40;;;;;;;14.50;79.15;98527.55;106580;1277;22542;-74
2023/07/08 04:07:49;;;;;;;10.60;7.70;;;;;;;14.56;78.73;98529.64;106573;1277;22706;-74
2023/07/08 04:10:18;;;;;;;12.00;8.10;;;;;;;14.64;78.96;98529.41;106603;1277;22536;-75
2023/07/08 04:12:45;;;;;;;11.60;7.70;;;;;;;14.75;79.10;98530.91;106635;1277;25404;-75
2023/07/08 04:15:13;;;;;;;11.10;8.50;;;;;;;14.88;78.75;98532.64;106559;1278;24269;-75
2023/07/08 04:17:45;;;;;;;9.50;7.40;;;;;;;15.03;79.45;98529.82;106591;1277;24246;-76
2023/07/08 04:20:15;;;;;;;9.50;7.40;;;;;;;15.38;79.67;98532.55;106576;1277;22664;-76
2023/07/08 04:22:42;;;;;;;8.80;7.10;;;;;;;15.67;78.75;98531.89;106657;1277;22676;-75
2023/07/08 04:25:12;;;;;;;10.40;8.30;;;;;;;15.85;78.89;98525.67;106604;1277;25880;-75
2023/07/08 04:27:39;;;;;;;13.70;9.30;;;;;;;16.08;78.32;98521.60;106594;1277;24396;-75
2023/07/08 04:30:07;;;;;;;12.00;9.60;;;;;;;16.23;78.43;98524.89;106653;1277;22608;-74
2023/07/08 04:32:33;;;;;;;10.90;9.80;;;;;;;16.49;78.51;98520.59;106622;1277;25428;-75
2023/07/08 04:35:00;;;;;;;8.70;7.10;;;;;;;16.72;77.91;98523.02;106551;1277;22540;-73
2023/07/08 04:37:26;;;;;;;16.70;12.40;;;;;;;16.98;77.60;98516.11;106558;1277;24266;-74
2023/07/08 04:39:53;;;;;;;13.00;11.50;;;;;;;17.26;77.36;98518.41;106554;1277;24206;-74
2023/07/08 04:42:19;;;;;;;14.90;13.00;;;;;;;17.46;76.61;98521.87;106562;1277;24284;-74
2023/07/08 04:44:46;;;;;;;15.20;11.40;;;;;;;17.67;76.03;98519.34;106409;1267;198104;-74
2023/07/08 04:47:13;;;;;;;12.50;8.70;;;;;;;17.87;75.48;98516.70;106601;1277;25402;-74
2023/07/08 04:49:43;;;;;;;10.90;8.30;;;;;;;18.10;74.65;98521.84;106595;1277;22612;-74
2023/07/08 04:52:10;;;;;;;13.00;11.30;;;;;;;18.37;73.37;98517.98;106688;1277;22622;-74
2023/07/08 04:54:37;;;;;;;10.50;9.20;;;;;;;18.56;73.08;98515.79;106598;1277;22693;-74
2023/07/08 04:57:04;;;;;;;11.40;8.90;;;;;;;18.64;72.34;98512.26;106607;1277;23143;-73
2023/07/08 04:59:34;;;;;;;10.80;9.60;;;;;;;18.78;71.75;98511.38;106481;1277;25410;-74
2023/07/08 05:02:00;;;;;;;9.20;8.20;;;;;;;18.90;71.68;98515.83;106558;1277;22664;-75
2023/07/08 05:04:27;;;;;;;13.10;10.00;;;;;;;18.97;72.05;98519.56;106568;1277;22539;-74
2023/07/08 05:06:54;;;;;;;15.00;10.00;;;;;;;19.00;71.81;98522.56;106835;1277;22553;-74
2023/07/08 05:09:23;;;;;;;13.70;10.30;;;;;;;19.05;72.12;98517.74;106601;1267;22654;-74
2023/07/08 05:11:50;;;;;;;12.70;9.80;;;;;;;19.12;71.85;98516.93;106619;1277;25379;-74
2023/07/08 05:14:16;;;;;;;13.10;9.30;;;;;;;19.20;71.94;98517.99;106636;1277;25343;-75
2023/07/08 05:16:43;;;;;;;13.00;9.80;;;;;;;19.18;71.65;98516.83;106676;1277;22665;-74
2023/07/08 05:19:10;;;;;;;11.50;8.40;;;;;;;19.29;71.24;98519.67;106545;1277;22541;-75
2023/07/08 05:21:38;;;;;;;12.40;9.00;;;;;;;19.49;70.74;98521.87;106750;1275;22533;-74
2023/07/08 05:24:05;;;;;;;10.40;8.50;;;;;;;19.66;70.11;98522.80;106777;1278;22768;-74
2023/07/08 05:26:33;;;;;;;11.30;9.60;;;;;;;19.77;70.32;98528.41;106704;1256;22965;-75
2023/07/08 05:29:00;;;;;;;10.30;8.60;;;;;;;19.80;70.04;98521.84;106780;1277;22538;-74
2023/07/08 05:31:27;;;;;;;13.40;9.30;;;;;;;19.90;69.79;98521.52;106720;1277;24202;-75
2023/07/08 05:34:14;;;;;;;13.00;8.10;;;;;;;20.01;69.44;98516.77;106741;1277;25485;-75
2023/07/08 05:36:41;;;;;;;12.80;9.60;;;;;;;20.11;69.34;98518.55;106715;1277;24324;-74
2023/07/08 05:39:07;;;;;;;12.90;11.00;;;;;;;20.19;69.27;98513.61;106497;1278;22533;-75
2023/07/08 05:41:34;;;;;;;15.80;10.60;;;;;;;20.15;69.54;98512.41;106757;1277;26542;-74
2023/07/08 05:44:01;;;;;;;15.60;11.20;;;;;;;20.11;69.46;98512.14;106732;1277;22554;-74
2023/07/08 05:46:28;;;;;;;11.60;9.10;;;;;;;20.05;69.48;98510.47;106769;1278;22714;-74
2023/07/08 05:48:55;;;;;;;13.10;11.60;;;;;;;20.09;69.33;98514.13;106771;1277;25423;-74
2023/07/08 05:51:22;;;;;;;13.80;10.80;;;;;;;20.04;69.01;98510.73;106714;1277;22636;-75
2023/07/08 05:53:49;;;;;;;12.80;10.00;;;;;;;19.89;68.73;98515.27;106756;1277;22781;-75
2023/07/08 05:56:15;;;;;;;16.90;11.10;;;;;;;19.77;68.86;98518.48;106753;1277;22534;-75
2023/07/08 05:58:42;;;;;;;17.90;11.30;;;;;;;19.73;68.97;98520.68;106740;1277;22540;-77
2023/07/08 06:01:08;;;;;;;18.10;10.80;;;;;;;19.68;68.74;98526.02;106768;1277;22654;-75
2023/07/08 06:03:37;;;;;;;15.90;9.70;;;;;;;19.60;68.64;98522.13;106766;1277;24382;-75
2023/07/08 06:06:05;;;;;;;17.40;10.70;;;;;;;19.54;68.62;98521.64;106774;1277;22576;-75
2023/07/08 06:08:35;;;;;;;13.90;9.60;;;;;;;19.59;68.63;98523.11;106718;1278;22551;-75
2023/07/08 06:11:01;;;;;;;18.80;10.20;;;;;;;19.73;68.48;98524.23;106762;1277;22583;-75
2023/07/08 06:13:29;;;;;;;17.00;9.30;;;;;;;19.78;67.93;98523.98;106736;1277;22555;-75
2023/07/08 06:15:55;;;;;;;23.80;11.10;;;;;;;19.79;67.69;98524.70;106690;1277;25426;-75
2023/07/08 06:18:22;;;;;;;14.50;8.00;;;;;;;19.81;67.48;98527.66;106613;1277;23156;-74
2023/07/08 06:20:57;;;;;;;19.10;11.10;;;;;;;19.93;67.71;98526.08;106586;1277;22537;-75
2023/07/08 06:23:25;;;;;;;16.00;10.70;;;;;;;20.15;67.13;98529.60;106687;1277;22555;-75
2023/07/08 06:25:52;;;;;;;19.60;9.50;;;;;;;20.34;66.99;98534.54;106623;1277;22535;-75
2023/07/08 06:28:19;;;;;;;16.40;9.40;;;;;;;20.40;66.47;98531.10;106603;1277;22537;-75
2023/07/08 06:30:47;;;;;;;12.90;8.70;;;;;;;20.43;66.58;98533.92;106739;1277;22667;-75
2023/07/08 06:33:14;;;;;;;11.20;8.50;;;;;;;20.45;66.05;98533.52;106609;1277;22660;-75
2023/07/08 06:35:41;;;;;;;16.50;8.30;;;;;;;20.50;65.84;98533.26;106624;1277;23906;-75
2023/07/08 06:38:08;;;;;;;9.90;7.30;;;;;;;20.61;65.78;98531.25;106610;1277;22527;-75
2023/07/08 06:40:35;;;;;;;10.30;8.10;;;;;;;20.66;65.51;98532.47;106601;1277;24548;-75
2023/07/08 06:43:03;;;;;;;11.60;7.10;;;;;;;20.76;65.08;98531.71;106622;1277;22530;-75
2023/07/08 06:45:35;;;;;;;17.60;7.80;;;;;;;20.83;64.96;98534.89;106581;1278;22735;-75
2023/07/08 06:48:02;;;;;;;9.80;6.40;;;;;;;20.91;64.39;98535.23;106609;1277;26010;-75
2023/07/08 06:50:30;;;;;;;8.90;6.50;;;;;;;21.02;63.66;98536.79;106685;1277;22533;-73
2023/07/08 06:52:57;;;;;;;16.40;7.40;;;;;;;21.15;63.45;98533.52;106592;1277;23202;-74
2023/07/08 06:55:24;;;;;;;11.00;7.10;;;;;;;21.22;62.22;98528.13;106692;1277;24126;-73
2023/07/08 06:57:51;;;;;;;12.20;6.40;;;;;;;21.28;62.24;98526.71;106700;1277;22548;-74
2023/07/08 07:00:18;;;;;;;9.20;5.70;;;;;;;21.38;61.33;98526.20;106676;1277;24251;-75
2023/07/08 07:02:44;;;;;;;10.10;6.10;;;;;;;21.44;61.29;98525.48;106683;1278;22590;-74
2023/07/08 07:05:11;;;;;;;12.00;6.60;;;;;;;21.49;61.19;98527.73;106625;1277;23725;-75
2023/07/08 07:07:38;;;;;;;9.30;5.70;;;;;;;21.56;59.18;98529.81;106613;1278;25412;-74
2023/07/08 07:10:05;;;;;;;8.40;6.00;;;;;;;21.59;59.45;98524.88;106741;1254;25463;-74
2023/07/08 07:12:32;;;;;;;10.40;6.70;;;;;;;21.65;58.97;98526.38;106714;1277;22529;-74
2023/07/08 07:14:59;;;;;;;8.00;4.50;;;;;;;21.77;59.57;98528.22;106749;1277;25230;-74
2023/07/08 07:17:26;;;;;;;8.70;5.50;;;;;;;21.97;59.67;98525.49;106602;1277;22533;-74
2023/07/08 07:19:54;;;;;;;7.60;5.10;;;;;;;22.15;59.00;98527.86;106679;1277;24381;-74
2023/07/08 07:22:20;;;;;;;8.40;5.30;;;;;;;22.24;58.54;98526.50;106497;1277;25455;-75
2023/07/08 07:24:47;;;;;;;7.60;5.40;;;;;;;22.31;58.64;98522.73;106586;1278;22570;-73
2023/07/08 07:27:14;;;;;;;10.20;5.50;;;;;;;22.45;58.60;98521.27;106621;1277;24331;-74
2023/07/08 07:29:43;;;;;;;7.50;5.00;;;;;;;22.57;58.17;98523.21;106612;1278;22685;-74
2023/07/08 07:32:11;;;;;;;5.80;4.40;;;;;;;22.63;56.44;98526.17;106674;1277;22609;-74
2023/07/08 07:34:38;;;;;;;7.40;4.80;;;;;;;22.69;56.62;98528.23;106594;1278;22824;-74
2023/07/08 07:37:16;;;;;;;7.00;5.00;;;;;;;22.79;56.79;98526.16;106730;1278;22533;-74
2023/07/08 07:39:43;;;;;;;8.60;4.80;;;;;;;22.89;56.15;98527.68;106764;1278;23386;-73
2023/07/08 07:42:11;;;;;;;8.30;4.50;;;;;;;22.92;54.79;98525.54;106724;1256;24286;-74
2023/07/08 07:44:39;;;;;;;7.30;4.90;;;;;;;22.98;55.55;98526.30;106753;1277;25467;-75
2023/07/08 07:47:07;;;;;;;6.80;4.40;;;;;;;23.12;55.17;98524.27;106703;1270;24273;-74
2023/07/08 07:49:34;;;;;;;6.60;3.90;;;;;;;23.26;54.38;98516.86;106707;1277;22526;-74
2023/07/08 07:52:01;;;;;;;8.80;5.10;;;;;;;23.39;54.04;98519.36;106557;1278;22551;-74
2023/07/08 07:54:27;;;;;;;5.80;4.50;;;;;;;23.49;53.76;98517.95;106752;1277;22668;-75
2023/07/08 07:56:54;;;;;;;6.70;4.30;;;;;;;23.63;54.07;98519.81;106725;1277;22545;-74
2023/07/08 07:59:22;;;;;;;6.60;3.60;;;;;;;23.78;53.52;98526.27;106754;1277;24209;-75
2023/07/08 08:01:53;;;;;;;5.90;4.00;;;;;;;23.92;52.03;98531.58;106543;1277;24119;-74
2023/07/08 08:04:20;;;;;;;5.60;3.70;;;;;;;24.01;51.93;98530.12;106594;1277;24406;-74
2023/07/08 08:06:47;;;;;;;8.30;3.80;;;;;;;23.96;49.33;98531.55;106689;1277;25341;-74
2023/07/08 08:09:14;;;;;;;7.60;3.60;;;;;;;24.01;50.88;98531.15;106520;1277;25239;-75
2023/07/08 08:11:40;;;;;;;7.40;3.90;;;;;;;24.16;50.09;98531.97;106741;1259;24299;-74
2023/07/08 08:14:07;;;;;;;7.40;4.10;;;;;;;24.30;49.34;98531.52;106638;1277;23255;-72
2023/07/08 08:16:34;;;;;;;7.90;3.80;;;;;;;24.33;48.84;98530.23;106532;1278;22691;-74
2023/07/08 08:19:00;;;;;;;8.80;3.90;;;;;;;24.30;47.14;98528.92;106574;1277;22646;-74
2023/07/08 08:21:27;;;;;;;4.70;3.40;;;;;;;24.23;46.27;98529.30;106558;1277;26188;-74
2023/07/08 08:23:53;;;;;;;7.80;3.50;;;;;;;24.19;45.66;98528.71;106619;1278;25457;-74
2023/07/08 08:26:20;;;;;;;4.60;2.60;;;;;;;24.24;46.57;98537.04;106619;1278;22537;-73
2023/07/08 08:28:46;;;;;;;3.70;2.80;;;;;;;24.31;46.04;98539.95;106659;1277;25291;-73
2023/07/08 08:31:13;;;;;;;4.70;2.80;;;;;;;24.37;42.12;98535.85;106604;1277;22623;-74
2023/07/08 08:33:40;;;;;;;3.00;2.60;;;;;;;24.37;43.22;98532.23;106601;1277;24339;-74
2023/07/08 08:36:06;;;;;;;6.40;3.00;;;;;;;24.45;43.96;98529.29;106502;1277;22519;-73
2023/07/08 08:38:33;;;;;;;5.40;2.90;;;;;;;24.63;44.72;98518.55;106719;1277;23902;-75
2023/07/08 08:41:11;;;;;;;5.80;2.50;;;;;;;24.82;44.44;98520.00;106644;1277;24257;-75
2023/07/08 08:43:42;;;;;;;4.90;2.60;;;;;;;25.00;44.89;98522.55;106621;1277;22653;-73
2023/07/08 08:46:27;;;;;;;7.10;3.10;;;;;;;25.17;43.70;98519.10;106631;1260;22529;-74
2023/07/08 08:49:20;;;;;;;3.90;2.70;;;;;;;25.26;42.60;98517.92;106743;1277;22537;-74
2023/07/08 08:51:49;;;;;;;7.40;3.30;;;;;;;25.30;43.19;98511.58;106477;1278;22539;-76
2023/07/08 08:54:15;;;;;;;7.60;3.40;;;;;;;25.45;43.05;98505.94;106802;1278;24330;-75
2023/07/08 08:57:20;;;;;;;3.00;2.50;;;;;;;25.60;42.20;98507.14;106715;1278;22722;-74
2023/07/08 08:59:55;;;;;;;4.40;2.70;;;;;;;25.74;42.33;98508.73;106732;1278;22546;-74
2023/07/08 09:02:30;;;;;;;7.30;3.00;;;;;;;25.84;41.06;98508.66;106773;1277;22541;-75
2023/07/08 09:05:03;;;;;;;5.20;3.10;;;;;;;25.86;40.92;98504.73;106723;1278;22557;-74
2023/07/08 09:07:38;;;;;;;5.10;2.90;;;;;;;25.89;39.82;98504.98;106692;1278;25558;-73
2023/07/08 09:10:15;;;;;;;6.00;3.40;;;;;;;25.95;39.78;98507.85;106578;1278;22549;-75
2023/07/08 09:12:43;;;;;;;5.20;2.50;;;;;;;26.07;39.88;98507.35;106557;1277;25340;-73
2023/07/08 09:15:15;;;;;;;5.10;2.50;;;;;;;26.14;39.25;98506.67;106652;1278;24388;-73
2023/07/08 09:17:42;;;;;;;3.70;2.60;;;;;;;26.19;40.13;98505.92;106617;1278;22547;-73
2023/07/08 09:20:24;;;;;;;3.40;2.60;;;;;;;26.34;39.92;98507.55;106589;1278;24294;-73
2023/07/08 09:23:22;;;;;;;6.50;2.60;;;;;;;26.46;38.67;98509.89;106708;1277;22702;-74
2023/07/08 09:26:07;;;;;;;4.90;2.70;;;;;;;26.57;39.35;98508.30;106518;1277;24016;-74
2023/07/08 09:28:42;;;;;;;4.70;2.70;;;;;;;26.59;37.45;98503.64;106729;1278;25357;-73
2023/07/08 09:31:26;;;;;;;3.50;2.30;;;;;;;26.32;34.22;98503.27;106895;1277;25353;-73
2023/07/08 09:34:11;;;;;;;3.50;2.50;;;;;;;25.99;34.40;98501.10;106716;1278;22650;-74
2023/07/08 09:36:43;;;;;;;4.10;2.20;;;;;;;26.04;36.49;98497.17;106588;1278;22527;-73
2023/07/08 09:39:16;;;;;;;4.20;2.60;;;;;;;26.29;36.46;98496.64;106568;1278;26615;-73
2023/07/08 09:41:44;;;;;;;3.70;2.50;;;;;;;26.50;36.78;98497.36;106606;1278;22534;-72
2023/07/08 09:44:28;;;;;;;4.50;2.40;;;;;;;26.75;36.81;98496.40;106658;1277;24274;-73
2023/07/08 09:46:58;;;;;;;7.40;2.40;;;;;;;26.98;36.70;98495.97;106631;1278;22633;-73
2023/07/08 09:49:34;;;;;;;2.60;2.00;;;;;;;27.15;36.63;98496.62;106584;1277;22544;-74
2023/07/08 09:52:04;;;;;;;2.90;2.50;;;;;;;27.35;36.10;98494.57;106564;1265;22650;-75
2023/07/08 09:54:32;;;;;;;2.60;1.90;;;;;;;27.44;34.88;98498.04;106740;1277;22678;-75
2023/07/08 09:57:24;;;;;;;3.80;1.90;;;;;;;27.46;34.22;98503.41;106690;1278;22524;-74
2023/07/08 10:00:06;;;;;;;2.90;1.90;;;;;;;27.48;34.60;98503.11;106566;1256;24225;-75
2023/07/08 10:02:45;;;;;;;5.00;2.10;;;;;;;27.53;34.37;98499.39;106746;1278;22531;-74
2023/07/08 10:05:14;;;;;;;4.00;2.10;;;;;;;27.52;34.11;98497.25;106716;1277;22547;-75
2023/07/08 10:07:43;;;;;;;2.60;2.10;;;;;;;27.62;34.45;98496.52;106590;1278;24381;-74
2023/07/08 10:10:15;;;;;;;3.90;2.00;;;;;;;27.73;33.36;98496.73;106473;1277;25384;-73
2023/07/08 10:12:59;;;;;;;3.10;2.10;;;;;;;27.65;33.38;98491.92;106656;1277;25437;-74
2023/07/08 10:15:48;;;;;;;4.30;2.20;;;;;;;27.62;32.59;98490.35;106791;1278;22545;-74
2023/07/08 10:18:17;;;;;;;8.20;2.30;;;;;;;27.55;31.06;98495.89;106626;1278;22547;-74
2023/07/08 10:21:19;;;;;;;3.20;2.20;;;;;;;27.50;32.41;98495.34;106641;1278;22525;-74
2023/07/08 10:24:11;;;;;;;3.70;2.30;;;;;;;27.64;32.58;98489.16;106431;1278;22540;-73
2023/07/08 10:26:38;;;;;;;3.60;2.50;;;;;;;27.79;32.94;98487.24;106438;1277;24308;-74
2023/07/08 10:29:14;;;;;;;4.80;2.60;;;;;;;27.89;32.16;98482.80;106682;1277;22547;-74
2023/07/08 10:31:56;;;;;;;5.00;2.50;;;;;;;28.01;32.05;98483.39;106569;1277;22581;-74
2023/07/08 10:34:26;;;;;;;5.60;2.60;;;;;;;28.04;31.87;98483.61;106690;1278;22530;-73
2023/07/08 10:36:58;;;;;;;3.40;2.10;;;;;;;28.02;32.24;98481.48;106634;1278;25489;-74
2023/07/08 10:39:57;;;;;;;4.40;2.10;;;;;;;28.09;31.87;98479.41;106605;1278;22569;-74
2023/07/08 10:42:56;;;;;;;15.10;3.30;;;;;;;28.06;31.74;98473.08;106084;1286;25349;-74
2023/07/08 10:45:46;;;;;;;3.60;1.90;;;;;;;28.12;30.05;98472.44;106093;1286;25347;-74
2023/07/08 10:48:37;;;;;;;5.90;2.10;;;;;;;27.98;30.63;98468.67;106161;1286;22580;-73
2023/07/08 10:51:04;;;;;;;5.80;2.40;;;;;;;27.95;30.71;98462.92;106066;1286;22544;-73
2023/07/08 10:53:41;;;;;;;4.40;2.30;;;;;;;27.95;31.13;98463.00;106140;1285;24387;-73
2023/07/08 10:56:16;;;;;;;3.80;2.20;;;;;;;28.10;30.34;98463.02;106123;1286;22594;-74
2023/07/08 10:59:24;;;;;;;3.90;2.50;;;;;;;28.09;30.74;98461.69;106115;1285;25353;-74
2023/07/08 11:02:15;;;;;;;5.30;2.40;;;;;;;28.34;31.32;98460.92;106061;1286;22587;-74
2023/07/08 11:04:51;;;;;;;3.80;2.40;;;;;;;28.57;31.61;98457.98;106098;1286;23230;-73
2023/07/08 11:07:36;;;;;;;2.90;2.00;;;;;;;28.73;31.01;98451.92;106088;1286;22692;-73
2023/07/08 11:10:11;;;;;;;5.20;2.10;;;;;;;28.98;31.55;98451.73;105980;1285;23847;-79
2023/07/08 11:12:57;;;;;;;3.10;2.00;;;;;;;29.09;30.80;98446.86;105899;1286;22547;-74
2023/07/08 11:15:33;;;;;;;3.50;2.10;;;;;;;29.02;29.93;98443.64;106092;1286;25300;-73
2023/07/08 11:18:11;;;;;;;5.10;2.20;;;;;;;28.95;29.74;98442.81;106258;1277;25415;-74
2023/07/08 11:20:45;;;;;;;4.30;2.20;;;;;;;28.98;29.83;98446.59;106700;1278;22628;-75
2023/07/08 11:23:31;;;;;;;6.70;2.50;;;;;;;29.09;30.12;98439.23;106608;1278;25271;-75
2023/07/08 11:26:17;;;;;;;4.70;2.20;;;;;;;29.12;29.76;98439.52;106614;1278;24240;-73
2023/07/08 11:28:44;;;;;;;5.80;2.90;;;;;;;29.12;30.02;98436.75;106603;1278;22541;-74
2023/07/08 11:31:12;;;;;;;5.20;2.40;;;;;;;29.02;29.02;98436.10;106616;1277;23958;-73
2023/07/08 11:33:41;;;;;;;5.40;2.70;;;;;;;28.94;29.69;98434.02;106683;1277;22532;-73
2023/07/08 11:36:09;;;;;;;3.50;2.10;;;;;;;29.01;29.71;98427.23;106561;1278;22576;-74
2023/07/08 11:38:38;;;;;;;3.50;2.30;;;;;;;29.04;29.18;98426.19;106573;1278;24657;-73